createdAt,value
2018-09-05T00:02:22.138Z,17.17
2018-09-05T00:07:19.976Z,16.83
2018-09-05T00:12:17.443Z,16.40
2018-09-05T00:17:14.864Z,17.93
2018-09-05T00:22:12.300Z,17.23
2018-09-05T00:27:09.707Z,17.17
2018-09-05T00:32:07.107Z,18.10
2018-09-05T00:37:05.207Z,16.03
2018-09-05T00:42:02.640Z,18.30
2018-09-05T00:47:00.060Z,17.07
2018-09-05T00:51:57.483Z,18.17
2018-09-05T00:56:54.973Z,15.93
2018-09-05T01:01:52.367Z,18.17
2018-09-05T01:06:49.847Z,17.97
2018-09-05T01:11:47.219Z,17.70
2018-09-05T01:16:44.652Z,17.13
2018-09-05T01:21:42.076Z,17.40
2018-09-05T01:26:39.527Z,17.87
2018-09-05T01:31:36.993Z,18.03
2018-09-05T01:36:34.423Z,18.20
2018-09-05T01:41:31.823Z,19.90
2018-09-05T01:46:29.244Z,18.70
2018-09-05T01:51:31.252Z,16.30
2018-09-05T01:56:28.673Z,18.23
2018-09-05T02:01:26.067Z,17.30
2018-09-05T02:06:23.580Z,17.83
2018-09-05T02:11:21.058Z,17.70
2018-09-05T02:16:18.529Z,17.03
2018-09-05T02:21:15.928Z,17.23
2018-09-05T02:26:13.303Z,16.30
2018-09-05T02:31:11.262Z,19.00
2018-09-05T02:36:08.676Z,18.57
2018-09-05T02:41:06.127Z,18.40
2018-09-05T02:46:03.586Z,19.20
2018-09-05T02:51:01.103Z,17.80
2018-09-05T02:56:01.860Z,18.33
2018-09-05T03:00:59.277Z,17.63
2018-09-05T03:05:56.839Z,17.70
2018-09-05T03:10:54.257Z,18.30
2018-09-05T03:15:51.767Z,18.80
2018-09-05T03:20:49.176Z,21.10
2018-09-05T03:25:46.590Z,18.87
2018-09-05T03:30:43.979Z,22.80
2018-09-05T03:35:41.378Z,19.53
2018-09-05T03:40:38.812Z,21.80
2018-09-05T03:45:36.805Z,18.90
2018-09-05T03:50:34.220Z,19.30
2018-09-05T03:55:31.631Z,20.70
2018-09-05T04:00:33.458Z,18.93
2018-09-05T04:05:31.321Z,19.07
2018-09-05T04:10:28.789Z,19.83
2018-09-05T04:15:30.487Z,18.17
2018-09-05T04:20:28.186Z,17.87
2018-09-05T04:25:25.612Z,17.43
2018-09-05T04:30:23.093Z,18.03
2018-09-05T04:35:20.549Z,18.87
2018-09-05T04:40:19.001Z,16.20
2018-09-05T04:45:16.592Z,16.93
2018-09-05T04:50:14.013Z,17.83
2018-09-05T04:55:11.428Z,15.83
2018-09-05T05:00:08.877Z,16.40
2018-09-05T05:05:06.424Z,17.33
2018-09-05T05:10:05.459Z,17.33
2018-09-05T05:15:02.872Z,15.57
2018-09-05T05:20:01.247Z,17.90
2018-09-05T05:24:58.656Z,15.77
2018-09-05T05:29:57.291Z,16.40
2018-09-05T05:34:54.682Z,14.67
2018-09-05T05:40:04.273Z,13.10
2018-09-05T05:45:02.036Z,14.87
2018-09-05T05:49:59.480Z,13.47
2018-09-05T05:54:56.911Z,16.33
2018-09-05T05:59:54.335Z,15.90
2018-09-05T06:04:52.003Z,17.47
2018-09-05T06:09:50.462Z,15.80
2018-09-05T06:14:47.871Z,16.80
2018-09-05T06:19:45.499Z,17.73
2018-09-05T06:24:42.976Z,19.33
2018-09-05T06:29:40.413Z,20.87
2018-09-05T06:34:37.819Z,18.13
2018-09-05T06:39:38.291Z,19.60
2018-09-05T06:44:35.801Z,18.03
2018-09-05T06:49:33.724Z,18.87
2018-09-05T06:54:31.152Z,18.50
2018-09-05T06:59:28.586Z,16.60
2018-09-05T07:04:26.006Z,16.67
2018-09-05T07:09:29.555Z,16.33
2018-09-05T07:14:27.235Z,14.57
2018-09-05T07:19:24.707Z,14.37
2018-09-05T07:24:22.191Z,13.57
2018-09-05T07:29:19.590Z,12.17
2018-09-05T07:34:17.035Z,11.13
2018-09-05T07:39:22.717Z,12.87
2018-09-05T07:44:20.272Z,12.77
2018-09-05T07:49:17.686Z,11.67
2018-09-05T07:54:16.577Z,12.00
2018-09-05T07:59:14.171Z,11.40
2018-09-05T08:04:11.650Z,10.07
2018-09-05T08:09:12.793Z,10.70
2018-09-05T08:14:10.268Z,9.47
2018-09-05T08:19:07.713Z,8.37
2018-09-05T08:24:05.153Z,8.43
2018-09-05T08:29:02.588Z,8.57
2018-09-05T08:34:00.019Z,9.20
2018-09-05T08:38:57.837Z,8.40
2018-09-05T08:43:55.335Z,7.90
2018-09-05T08:48:52.601Z,7.20
2018-09-05T08:53:50.341Z,7.30
2018-09-05T08:58:47.781Z,6.93
2018-09-05T09:03:45.431Z,6.10
2018-09-05T09:08:42.887Z,5.43
2018-09-05T09:13:40.355Z,6.67
2018-09-05T09:18:37.829Z,5.40
2018-09-05T09:23:35.267Z,5.33
2018-09-05T09:28:32.694Z,5.53
2018-09-05T09:33:30.120Z,6.50
2018-09-05T09:38:27.559Z,5.93
2018-09-05T09:43:25.008Z,5.63
2018-09-05T09:48:22.411Z,5.67
2018-09-05T09:53:19.797Z,5.50
2018-09-05T09:58:17.387Z,5.50
2018-09-05T10:03:20.644Z,5.13
2018-09-05T10:08:23.675Z,5.93
2018-09-05T10:13:26.575Z,5.33
2018-09-05T10:18:26.934Z,4.97
2018-09-05T10:23:24.671Z,6.10
2018-09-05T10:28:22.133Z,5.87
2018-09-05T10:33:19.555Z,5.40
2018-09-05T10:38:16.967Z,6.43
2018-09-05T10:43:14.391Z,6.37
2018-09-05T10:48:13.260Z,6.00
2018-09-05T10:53:10.749Z,7.00
2018-09-05T10:58:08.230Z,7.43
2018-09-05T11:03:05.766Z,7.27
2018-09-05T11:08:03.242Z,6.67
2018-09-05T11:13:00.702Z,6.93
2018-09-05T11:17:58.199Z,6.80
2018-09-05T11:22:55.616Z,6.37
2018-09-05T11:27:53.071Z,5.47
2018-09-05T11:32:50.498Z,5.47
2018-09-05T11:37:48.013Z,5.57
2018-09-05T11:42:45.427Z,5.73
2018-09-05T11:47:42.834Z,5.30
2018-09-05T11:52:40.301Z,5.73
2018-09-05T11:57:37.705Z,5.13
2018-09-05T12:02:35.182Z,4.40
2018-09-05T12:07:32.615Z,4.57
2018-09-05T12:12:30.126Z,5.20
2018-09-05T12:17:28.405Z,4.70
2018-09-05T12:22:25.900Z,5.03
2018-09-05T12:27:24.322Z,6.27
2018-09-05T12:32:21.764Z,4.60
2018-09-05T12:37:19.190Z,4.20
2018-09-05T12:42:18.917Z,4.83
2018-09-05T12:47:17.030Z,4.83
2018-09-05T12:52:14.507Z,4.80
2018-09-05T12:57:12.731Z,5.10
2018-09-05T13:02:10.172Z,4.90
2018-09-05T13:07:07.755Z,4.50
2018-09-05T13:12:05.422Z,5.00
2018-09-05T13:17:02.853Z,5.27
2018-09-05T13:22:00.286Z,4.67
2018-09-05T13:26:57.739Z,5.53
2018-09-05T13:31:55.610Z,5.17
2018-09-05T13:36:53.047Z,4.37
2018-09-05T13:41:50.536Z,5.43
2018-09-05T13:46:48.193Z,5.47
2018-09-05T13:51:51.211Z,4.63
2018-09-05T13:56:48.666Z,5.10
2018-09-05T14:01:46.085Z,5.47
2018-09-05T14:06:43.510Z,4.63
2018-09-05T14:11:41.091Z,5.13
2018-09-05T14:16:38.528Z,5.40
2018-09-05T14:21:35.998Z,5.87
2018-09-05T14:26:33.454Z,5.37
2018-09-05T14:31:30.948Z,5.50
2018-09-05T14:36:28.483Z,5.43
2018-09-05T14:41:25.924Z,5.10
2018-09-05T14:46:23.375Z,5.97
2018-09-05T14:51:20.816Z,5.30
2018-09-05T14:56:18.243Z,5.10
2018-09-05T15:01:15.769Z,5.20
2018-09-05T15:06:13.204Z,4.70
2018-09-05T15:11:10.678Z,5.10
2018-09-05T15:16:08.109Z,5.47
2018-09-05T15:21:05.931Z,4.40
2018-09-05T15:26:03.571Z,5.50
2018-09-05T15:31:01.011Z,5.20
2018-09-05T15:36:05.047Z,5.27
2018-09-05T15:41:03.040Z,5.30
2018-09-05T15:46:00.589Z,5.00
2018-09-05T15:50:58.148Z,5.47
2018-09-05T15:55:56.780Z,5.50
2018-09-05T16:00:54.191Z,5.50
2018-09-05T16:05:51.635Z,5.63
2018-09-05T16:10:51.509Z,5.70
2018-09-05T16:15:52.726Z,6.30
2018-09-05T16:20:50.227Z,5.13
2018-09-05T16:25:47.721Z,4.60
2018-09-05T16:30:45.187Z,4.73
2018-09-05T16:35:42.651Z,5.57
2018-09-05T16:40:40.189Z,4.50
2018-09-05T16:45:37.715Z,4.83
2018-09-05T16:50:35.185Z,4.90
2018-09-05T16:55:33.472Z,5.23
2018-09-05T17:00:31.847Z,3.90
2018-09-05T17:05:29.428Z,5.00
2018-09-05T17:10:29.428Z,4.60
2018-09-05T17:15:26.883Z,4.43
2018-09-05T17:20:25.990Z,4.90
2018-09-05T17:25:23.499Z,5.30
2018-09-05T17:30:26.424Z,5.80
2018-09-05T17:35:23.966Z,5.67
2018-09-05T17:40:24.816Z,5.47
2018-09-05T17:45:24.533Z,5.23
2018-09-05T17:50:22.055Z,5.30
2018-09-05T17:55:19.523Z,5.20
2018-09-05T18:00:16.959Z,5.70
2018-09-05T18:05:14.399Z,5.60
2018-09-05T18:10:12.486Z,6.00
2018-09-05T18:15:09.926Z,7.00
2018-09-05T18:20:07.415Z,6.00
2018-09-05T18:25:05.120Z,6.07
2018-09-05T18:30:02.904Z,5.30
2018-09-05T18:35:00.307Z,6.40
2018-09-05T18:39:58.760Z,5.53
2018-09-05T18:44:56.170Z,5.33
2018-09-05T18:49:53.627Z,5.57
2018-09-05T18:54:51.038Z,6.40
2018-09-05T18:59:48.467Z,6.13
2018-09-05T19:04:45.947Z,5.60
2018-09-05T19:09:46.427Z,6.20
2018-09-05T19:14:43.895Z,5.20
2018-09-05T19:19:41.291Z,6.27
2018-09-05T19:24:38.713Z,6.80
2018-09-05T19:29:36.123Z,5.60
2018-09-05T19:34:33.521Z,5.40
2018-09-05T19:39:41.263Z,5.97
2018-09-05T19:44:38.731Z,5.13
2018-09-05T19:49:36.118Z,6.30
2018-09-05T19:54:33.515Z,6.10
2018-09-05T19:59:30.919Z,5.70
2018-09-05T20:04:28.332Z,6.50
2018-09-05T20:09:30.427Z,5.20
2018-09-05T20:14:28.014Z,6.37
2018-09-05T20:19:25.475Z,6.23
2018-09-05T20:24:22.996Z,6.23
2018-09-05T20:29:20.395Z,6.97
2018-09-05T20:34:20.343Z,5.60
2018-09-05T20:39:21.908Z,6.30
2018-09-05T20:44:23.853Z,5.47
2018-09-05T20:49:24.840Z,6.50
2018-09-05T20:54:24.967Z,6.60
2018-09-05T20:59:31.210Z,8.50
2018-09-05T21:04:33.533Z,6.00
2018-09-05T21:09:38.727Z,5.90
2018-09-05T21:14:43.897Z,5.93
2018-09-05T21:19:43.367Z,6.27
2018-09-05T21:24:40.819Z,6.30
2018-09-05T21:29:38.252Z,5.87
2018-09-05T21:34:35.751Z,6.73
2018-09-05T21:39:43.455Z,6.60
2018-09-05T21:44:40.930Z,6.37
2018-09-05T21:49:38.315Z,7.20
2018-09-05T21:54:35.827Z,6.97
2018-09-05T21:59:33.272Z,6.03
2018-09-05T22:04:30.691Z,6.03
2018-09-05T22:09:32.824Z,7.13
2018-09-05T22:14:30.302Z,6.90
2018-09-05T22:19:27.744Z,7.20
2018-09-05T22:24:25.178Z,7.70
2018-09-05T22:29:22.664Z,7.97
2018-09-05T22:34:20.088Z,7.83
2018-09-05T22:39:32.979Z,7.30
2018-09-05T22:44:41.820Z,8.33
2018-09-05T22:49:56.052Z,7.33
2018-09-05T22:55:10.236Z,7.30
2018-09-05T23:00:28.660Z,7.43
2018-09-05T23:06:24.013Z,7.50
2018-09-05T23:12:36.693Z,6.53
2018-09-05T23:17:45.487Z,7.00
2018-09-05T23:22:54.143Z,7.10
2018-09-05T23:27:51.558Z,6.83
2018-09-05T23:32:48.981Z,7.60
2018-09-05T23:37:46.394Z,7.90
2018-09-05T23:42:43.804Z,8.30
2018-09-05T23:47:41.232Z,7.43
2018-09-05T23:52:38.639Z,7.27
2018-09-05T23:57:37.939Z,8.47
